Time;durP1;ratioP1;P1;durP2;ratioP2;P2;SDS_P1;SDS_P2;PMS_P1;PMS_P2;Temp;Humidity;BMP_temperature;BMP_pressure;BME280_temperature;BME280_humidity;BME280_pressure;Samples;Min_cycle;Max_cycle;Signal;HPM_P1;HPM_P2
2024/01/02 00:01:27;;;;;;;;;;;;;;;22.36;36.00;100057.97;5144367;27;19979;-50
2024/01/02 00:03:52;;;;;;;;;;;;;;;22.33;35.93;100041.28;5144681;27;19918;-49
2024/01/02 00:06:17;;;;;;;;;;;;;;;22.29;36.28;100038.19;5137041;27;19955;-47
2024/01/02 00:08:42;;;;;;;;;;;;;;;22.28;36.02;100030.28;5137576;27;19998;-48
2024/01/02 00:11:11;;;;;;;;;;;;;;;22.25;36.27;100026.09;5134935;27;19904;-48
2024/01/02 00:13:36;;;;;;;;;;;;;;;22.23;36.04;100019.25;5139981;27;19911;-46
2024/01/02 00:16:01;;;;;;;;;;;;;;;22.21;36.07;100014.84;5140830;27;19919;-49
2024/01/02 00:18:26;;;;;;;;;;;;;;;22.19;36.18;100003.44;5142243;27;19915;-50
2024/01/02 00:20:51;;;;;;;;;;;;;;;22.18;36.14;100004.47;5140550;27;20008;-49
2024/01/02 00:23:17;;;;;;;;;;;;;;;22.16;36.32;99990.31;5138327;27;19980;-50
2024/01/02 00:25:42;;;;;;;;;;;;;;;22.15;36.12;99983.22;5141593;27;19950;-49
2024/01/02 00:28:07;;;;;;;;;;;;;;;22.14;36.44;99976.16;5142210;27;20359;-49
2024/01/02 00:30:34;;;;;;;;;;;;;;;22.12;36.15;99967.41;5137260;27;19915;-48
2024/01/02 00:33:03;;;;;;;;;;;;;;;22.10;36.33;99957.81;5145288;27;19912;-48
2024/01/02 00:35:28;;;;;;;;;;;;;;;22.08;36.35;99951.78;5139252;27;19912;-48
2024/01/02 00:37:53;;;;;;;;;;;;;;;22.06;36.28;99937.63;5141387;27;20392;-49
2024/01/02 00:40:18;;;;;;;;;;;;;;;22.03;36.37;99929.94;5142401;27;19911;-50
2024/01/02 00:42:44;;;;;;;;;;;;;;;22.02;36.31;99929.09;5144216;27;19954;-48
2024/01/02 00:45:09;;;;;;;;;;;;;;;22.02;36.68;99917.44;5137529;27;19946;-46
2024/01/02 00:47:34;;;;;;;;;;;;;;;21.99;36.50;99913.28;5139089;27;19915;-49
2024/01/02 00:49:59;;;;;;;;;;;;;;;;;;5142957;27;19911;-49
2024/01/02 00:52:24;;;;;;;;;;;;;;;21.95;36.65;99899.34;5137029;27;19911;-50
2024/01/02 00:54:51;;;;;;;;;;;;;;;21.93;36.47;99882.50;5138315;27;19915;-47
2024/01/02 00:57:16;;;;;;;;;;;;;;;21.91;36.63;99868.31;5145031;27;19991;-48
2024/01/02 00:59:41;;;;;;;;;;;;;;;21.89;36.69;99865.03;5140056;27;19912;-49
2024/01/02 01:02:07;;;;;;;;;;;;;;;21.88;36.89;99854.41;5137662;27;19919;-48
2024/01/02 01:04:32;;;;;;;;;;;;;;;21.85;36.56;99842.13;5138578;27;19916;-47
2024/01/02 01:06:57;;;;;;;;;;;;;;;21.84;36.62;99835.06;5136082;27;19912;-47
2024/01/02 01:09:22;;;;;;;;;;;;;;;21.83;36.60;99824.44;5136062;27;19911;-50
2024/01/02 01:11:48;;;;;;;;;;;;;;;21.81;36.98;99818.44;5141184;27;19923;-46
2024/01/02 01:14:13;;;;;;;;;;;;;;;21.80;36.83;99816.78;5139085;27;19918;-49
2024/01/02 01:16:38;;;;;;;;;;;;;;;21.77;36.75;99807.19;5127657;27;19923;-50
2024/01/02 01:19:03;;;;;;;;;;;;;;;21.76;36.85;99804.72;5130963;27;19912;-49
2024/01/02 01:21:28;;;;;;;;;;;;;;;21.74;37.06;99798.69;5135399;27;19911;-46
2024/01/02 01:23:54;;;;;;;;;;;;;;;21.72;36.87;99782.66;5136664;27;19920;-47
2024/01/02 01:26:20;;;;;;;;;;;;;;;21.71;37.06;99772.91;5143144;27;19911;-46
2024/01/02 01:28:45;;;;;;;;;;;;;;;21.68;37.06;99767.91;5140284;27;19958;-48
2024/01/02 01:31:10;;;;;;;;;;;;;;;21.67;36.87;99761.66;5137199;27;20172;-46
2024/01/02 01:33:35;;;;;;;;;;;;;;;21.65;37.07;99749.41;5128243;27;19964;-46
2024/01/02 01:36:00;;;;;;;;;;;;;;;21.64;37.09;99736.91;5137821;27;19988;-46
2024/01/02 01:38:26;;;;;;;;;;;;;;;21.62;37.15;99731.72;5133930;27;19949;-47
2024/01/02 01:40:51;;;;;;;;;;;;;;;21.62;37.02;99726.31;5138026;27;20002;-45
2024/01/02 01:43:16;;;;;;;;;;;;;;;21.60;37.28;99716.75;5142543;27;19915;-44
2024/01/02 01:45:42;;;;;;;;;;;;;;;21.58;37.04;99708.00;5139067;27;19987;-45
2024/01/02 01:48:08;;;;;;;;;;;;;;;21.55;37.21;99701.19;5135406;27;19916;-46
2024/01/02 01:50:34;;;;;;;;;;;;;;;21.54;37.25;99685.19;5140036;27;19916;-46
2024/01/02 01:52:59;;;;;;;;;;;;;;;21.53;37.38;99676.19;5131184;27;19912;-47
2024/01/02 01:55:24;;;;;;;;;;;;;;;21.51;37.33;99659.38;5127601;27;19920;-46
2024/01/02 01:57:49;;;;;;;;;;;;;;;21.49;37.29;99653.34;5137664;27;19926;-46
2024/01/02 02:00:14;;;;;;;;;;;;;;;21.48;37.49;99642.75;5127051;27;19976;-46
2024/01/02 02:02:39;;;;;;;;;;;;;;;21.46;37.23;99624.03;5134397;27;19923;-45
2024/01/02 02:05:05;;;;;;;;;;;;;;;21.45;37.54;99627.78;5127653;27;19933;-47
2024/01/02 02:07:30;;;;;;;;;;;;;;;21.43;37.37;99614.47;5140435;27;19928;-45
2024/01/02 02:09:55;;;;;;;;;;;;;;;21.41;37.33;99613.06;5135643;27;19919;-46
2024/01/02 02:12:20;;;;;;;;;;;;;;;21.41;37.52;99613.06;5141395;27;19918;-48
2024/01/02 02:14:46;;;;;;;;;;;;;;;21.39;37.64;99601.63;5127971;27;19918;-48
2024/01/02 02:17:17;;;;;;;;;;;;;;;21.38;37.36;99608.06;5136180;27;19937;-49
2024/01/02 02:19:42;;;;;;;;;;;;;;;21.36;37.54;99594.75;5140022;27;19915;-51
2024/01/02 02:22:07;;;;;;;;;;;;;;;21.34;37.54;99575.22;5138956;27;20007;-48
2024/01/02 02:24:32;;;;;;;;;;;;;;;21.34;37.40;99569.00;5139035;27;19951;-49
2024/01/02 02:26:58;;;;;;;;;;;;;;;21.32;37.78;99552.16;5138309;27;20290;-46
2024/01/02 02:29:23;;;;;;;;;;;;;;;21.30;37.36;99538.81;5143108;27;19911;-48
2024/01/02 02:31:48;;;;;;;;;;;;;;;21.27;37.44;99523.03;5138412;27;19919;-48
2024/01/02 02:34:13;;;;;;;;;;;;;;;21.26;37.51;99513.28;5137497;27;19912;-47
2024/01/02 02:36:38;;;;;;;;;;;;;;;21.26;37.62;99515.16;5142555;27;19919;-50
2024/01/02 02:39:03;;;;;;;;;;;;;;;21.22;37.82;99502.06;5137619;27;20021;-51
2024/01/02 02:41:29;;;;;;;;;;;;;;;21.22;37.86;99488.53;5133517;27;19914;-46
2024/01/02 02:43:54;;;;;;;;;;;;;;;21.20;37.84;99471.72;5115892;27;19918;-48
2024/01/02 02:46:19;;;;;;;;;;;;;;;21.19;37.74;99466.53;5131774;27;19916;-49
2024/01/02 02:48:44;;;;;;;;;;;;;;;21.17;37.47;99457.81;5134945;27;20240;-49
2024/01/02 02:51:10;;;;;;;;;;;;;;;21.16;37.75;99439.97;5141777;27;19933;-51
2024/01/02 02:53:35;;;;;;;;;;;;;;;21.14;37.85;99432.06;5140785;27;19934;-46
2024/01/02 02:56:00;;;;;;;;;;;;;;;21.13;37.87;99414.19;5134937;27;19915;-51
2024/01/02 02:58:26;;;;;;;;;;;;;;;21.12;37.70;99417.94;5137731;27;19919;-50
2024/01/02 03:00:51;;;;;;;;;;;;;;;21.11;37.76;99419.00;5128563;28;19918;-45
2024/01/02 03:03:17;;;;;;;;;;;;;;;21.09;37.71;99404.03;5135398;28;19916;-48
2024/01/02 03:05:42;;;;;;;;;;;;;;;21.07;37.71;99398.84;5135771;28;19916;-51
2024/01/02 03:08:07;;;;;;;;;;;;;;;21.05;37.88;99390.13;5139644;28;19953;-48
2024/01/02 03:10:32;;;;;;;;;;;;;;;21.04;37.78;99377.69;5135617;28;19919;-50
2024/01/02 03:12:57;;;;;;;;;;;;;;;21.02;38.05;99389.75;5133741;27;19916;-51
2024/01/02 03:15:23;;;;;;;;;;;;;;;21.01;37.92;99378.09;5134022;27;19919;-50
2024/01/02 03:17:48;;;;;;;;;;;;;;;20.99;37.87;99363.19;5137727;27;19969;-47
2024/01/02 03:20:13;;;;;;;;;;;;;;;20.98;38.24;99348.81;5139786;27;19980;-47
2024/01/02 03:22:38;;;;;;;;;;;;;;;20.96;38.03;99340.13;5145854;27;19911;-48
2024/01/02 03:25:04;;;;;;;;;;;;;;;20.95;38.04;99327.66;5144782;27;20740;-49
2024/01/02 03:27:29;;;;;;;;;;;;;;;20.93;38.11;99322.47;5128045;27;19919;-50
2024/01/02 03:29:54;;;;;;;;;;;;;;;20.91;38.12;99300.25;5136765;27;19915;-51
2024/01/02 03:32:19;;;;;;;;;;;;;;;20.92;38.22;99292.97;5142084;27;20508;-49
2024/01/02 03:34:45;;;;;;;;;;;;;;;20.89;38.01;99275.31;5137494;27;19955;-47
2024/01/02 03:37:10;;;;;;;;;;;;;;;20.89;38.05;99263.69;5142787;27;20005;-50
2024/01/02 03:39:35;;;;;;;;;;;;;;;20.87;38.36;99255.00;5145660;27;19947;-49
2024/01/02 03:42:00;;;;;;;;;;;;;;;20.85;38.34;99238.16;5139444;27;19918;-47
2024/01/02 03:44:25;;;;;;;;;;;;;;;20.84;38.20;99225.72;5142017;27;19911;-47
2024/01/02 03:46:51;;;;;;;;;;;;;;;20.83;38.23;99214.09;5141857;27;19912;-48
2024/01/02 03:49:16;;;;;;;;;;;;;;;20.81;38.32;99199.97;5140400;27;20010;-49
2024/01/02 03:51:41;;;;;;;;;;;;;;;20.80;38.46;99190.22;5140617;27;19911;-49
2024/01/02 03:54:06;;;;;;;;;;;;;;;20.78;38.16;99186.91;5139706;27;19916;-50
2024/01/02 03:56:32;;;;;;;;;;;;;;;20.77;38.49;99177.16;5141641;27;19920;-48
2024/01/02 03:58:57;;;;;;;;;;;;;;;20.76;38.17;99182.78;5138429;27;19919;-46
2024/01/02 04:01:23;;;;;;;;;;;;;;;20.74;38.19;99161.41;5142900;27;19911;-50
2024/01/02 04:03:48;;;;;;;;;;;;;;;20.71;38.36;99167.25;5141248;27;19962;-47
2024/01/02 04:06:13;;;;;;;;;;;;;;;20.70;38.58;99154.78;5141820;27;19915;-46
2024/01/02 04:08:38;;;;;;;;;;;;;;;20.70;38.55;99150.22;5143509;27;19912;-46
2024/01/02 04:11:04;;;;;;;;;;;;;;;20.70;38.28;99135.91;5142816;27;19972;-49
2024/01/02 04:13:30;;;;;;;;;;;;;;;20.68;38.50;99121.78;5138164;27;19926;-48
2024/01/02 04:15:55;;;;;;;;;;;;;;;20.66;38.62;99110.38;5127680;27;19922;-48
2024/01/02 04:18:20;;;;;;;;;;;;;;;20.65;38.41;99104.16;5141500;27;19922;-47
2024/01/02 04:20:45;;;;;;;;;;;;;;;20.64;38.62;99099.78;5137644;27;19916;-46
2024/01/02 04:23:11;;;;;;;;;;;;;;;20.63;38.54;99092.75;5134626;27;19912;-48
2024/01/02 04:25:36;;;;;;;;;;;;;;;20.62;38.60;99085.69;5139586;27;20417;-47
2024/01/02 04:28:01;;;;;;;;;;;;;;;20.60;38.71;99079.72;5135472;27;19912;-47
2024/01/02 04:30:26;;;;;;;;;;;;;;;20.60;38.49;99086.97;5141457;27;19919;-46
2024/01/02 04:32:52;;;;;;;;;;;;;;;20.57;38.65;99074.75;5145917;27;19921;-47
2024/01/02 04:35:17;;;;;;;;;;;;;;;20.57;38.44;99080.16;5135448;27;19937;-46
2024/01/02 04:37:42;;;;;;;;;;;;;;;20.57;38.77;99103.63;5135195;27;19916;-47
2024/01/02 04:40:10;;;;;;;;;;;;;;;20.55;38.75;99087.63;5137167;27;19911;-48
2024/01/02 04:42:36;;;;;;;;;;;;;;;20.55;38.63;99078.72;5136070;27;19923;-48
2024/01/02 04:45:02;;;;;;;;;;;;;;;20.52;38.70;99069.19;5139399;27;19942;-47
2024/01/02 04:47:28;;;;;;;;;;;;;;;20.52;38.85;99055.72;5138748;27;19915;-47
2024/01/02 04:49:53;;;;;;;;;;;;;;;20.51;38.79;99054.03;5138862;27;19947;-47
2024/01/02 04:52:18;;;;;;;;;;;;;;;20.50;38.74;99065.88;5139296;27;19933;-47
2024/01/02 04:54:45;;;;;;;;;;;;;;;20.50;38.56;99063.19;5137707;27;19923;-45
2024/01/02 04:57:10;;;;;;;;;;;;;;;20.49;38.59;99066.13;5133632;27;19919;-47
2024/01/02 04:59:35;;;;;;;;;;;;;;;20.47;38.80;99056.34;5137069;27;20297;-46
2024/01/02 05:02:01;;;;;;;;;;;;;;;20.46;38.73;99051.97;5140954;27;19912;-47
2024/01/02 05:04:26;;;;;;;;;;;;;;;20.46;38.63;99045.75;5136234;27;19915;-46
2024/01/02 05:06:51;;;;;;;;;;;;;;;20.44;38.84;99037.06;5139030;27;20317;-46
2024/01/02 05:09:16;;;;;;;;;;;;;;;20.44;38.84;99028.97;5137144;27;19972;-46
2024/01/02 05:11:41;;;;;;;;;;;;;;;20.43;38.60;99021.91;5133504;27;19917;-45
2024/01/02 05:14:07;;;;;;;;;;;;;;;20.42;38.68;99029.16;5137643;27;19947;-48
2024/01/02 05:16:32;;;;;;;;;;;;;;;20.42;38.65;99022.94;5137546;27;19937;-49
2024/01/02 05:18:57;;;;;;;;;;;;;;;20.41;38.90;99026.72;5137910;27;19915;-51
2024/01/02 05:21:22;;;;;;;;;;;;;;;20.40;38.84;99015.09;5137388;27;19918;-52
2024/01/02 05:23:47;;;;;;;;;;;;;;;20.39;38.58;99016.16;5135401;27;19911;-46
2024/01/02 05:26:13;;;;;;;;;;;;;;;20.38;38.67;99019.06;5139536;27;19964;-51
2024/01/02 05:28:38;;;;;;;;;;;;;;;20.36;38.78;98995.00;5141140;27;19912;-51
2024/01/02 05:31:03;;;;;;;;;;;;;;;20.36;38.93;98994.19;5136225;27;20304;-49
2024/01/02 05:33:28;;;;;;;;;;;;;;;20.34;38.79;98993.56;5141393;27;19933;-50
2024/01/02 05:35:54;;;;;;;;;;;;;;;20.34;38.79;98999.78;5138085;27;19962;-46
2024/01/02 05:38:19;;;;;;;;;;;;;;;20.32;38.65;98985.69;5136657;27;20357;-47
2024/01/02 05:40:44;;;;;;;;;;;;;;;20.30;38.87;98987.78;5143129;27;19916;-45
2024/01/02 05:43:09;;;;;;;;;;;;;;;20.30;38.75;98985.09;5143093;27;19934;-47
2024/01/02 05:45:36;;;;;;;;;;;;;;;20.30;38.97;98982.38;5137165;27;19912;-47
2024/01/02 05:48:01;;;;;;;;;;;;;;;20.31;38.96;98988.63;5116655;27;19915;-46
2024/01/02 05:50:26;;;;;;;;;;;;;;;20.30;38.87;98987.78;5139131;27;19914;-45
2024/01/02 05:52:51;;;;;;;;;;;;;;;20.30;38.89;98989.66;5135060;27;19940;-48
2024/01/02 05:55:17;;;;;;;;;;;;;;;20.30;38.83;98987.78;5136984;27;19915;-46
2024/01/02 05:57:42;;;;;;;;;;;;;;;20.30;38.97;98984.25;5143878;27;19930;-45
2024/01/02 06:00:07;;;;;;;;;;;;;;;20.31;39.06;98977.84;5137678;27;19915;-48
2024/01/02 06:02:32;;;;;;;;;;;;;;;20.31;38.80;98978.66;5132076;27;20343;-49
2024/01/02 06:04:58;;;;;;;;;;;;;;;20.31;39.07;98975.13;5136722;27;19918;-49
2024/01/02 06:07:23;;;;;;;;;;;;;;;20.31;38.80;98983.22;5130044;27;19919;-52
2024/01/02 06:09:48;;;;;;;;;;;;;;;20.32;38.90;98976.78;5130785;27;19915;-46
2024/01/02 06:12:13;;;;;;;;;;;;;;;20.32;39.01;98976.78;5132147;27;19955;-47
2024/01/02 06:14:38;;;;;;;;;;;;;;;20.33;39.17;98973.84;5132967;27;19993;-49
2024/01/02 06:17:04;;;;;;;;;;;;;;;20.34;39.03;98972.78;5133640;27;19959;-47
2024/01/02 06:19:29;;;;;;;;;;;;;;;20.35;39.01;98977.16;5123080;27;19911;-50
2024/01/02 06:21:54;;;;;;;;;;;;;;;20.38;39.00;98975.88;5111535;27;19911;-47
2024/01/02 06:24:20;;;;;;;;;;;;;;;20.39;39.21;98972.09;5129813;27;19916;-49
2024/01/02 06:26:45;;;;;;;;;;;;;;;20.42;39.17;98985.16;5134798;27;19915;-50
2024/01/02 06:29:10;;;;;;;;;;;;;;;20.44;38.82;98974.97;5135804;27;19916;-47
2024/01/02 06:31:35;;;;;;;;;;;;;;;20.44;39.25;98977.69;5137935;27;19924;-48
2024/01/02 06:34:00;;;;;;;;;;;;;;;20.46;39.34;98989.88;5134888;27;20428;-46
2024/01/02 06:36:26;;;;;;;;;;;;;;;20.48;39.37;98989.72;5129996;27;19916;-50
2024/01/02 06:38:51;;;;;;;;;;;;;;;20.51;39.47;98983.00;5130215;27;19911;-50
2024/01/02 06:41:16;;;;;;;;;;;;;;;20.54;39.42;98993.38;5130210;27;19930;-48
2024/01/02 06:43:41;;;;;;;;;;;;;;;20.55;39.34;98984.22;5132480;27;19976;-48
2024/01/02 06:46:06;;;;;;;;;;;;;;;20.57;39.51;98993.75;5131581;27;19961;-47
2024/01/02 06:48:32;;;;;;;;;;;;;;;20.60;39.59;98996.00;5132987;27;19911;-50
2024/01/02 06:50:57;;;;;;;;;;;;;;;20.62;39.35;98996.59;5131354;27;19915;-50
2024/01/02 06:53:22;;;;;;;;;;;;;;;20.64;39.49;99002.56;5129686;28;20314;-48
2024/01/02 06:55:47;;;;;;;;;;;;;;;20.67;39.72;99018.34;5132100;27;19915;-49
2024/01/02 06:58:14;;;;;;;;;;;;;;;20.70;39.51;99009.78;5132274;27;20414;-51
2024/01/02 07:00:39;;;;;;;;;;;;;;;20.73;39.58;99013.94;5134886;27;19923;-50
2024/01/02 07:03:04;;;;;;;;;;;;;;;20.76;39.29;99012.63;5132832;28;19911;-48
2024/01/02 07:05:30;;;;;;;;;;;;;;;20.78;39.62;99026.75;5134068;28;20449;-46
2024/01/02 07:07:55;;;;;;;;;;;;;;;20.81;39.54;99026.28;5130906;28;19918;-49
2024/01/02 07:10:20;;;;;;;;;;;;;;;20.83;39.63;99025.00;5128899;28;19915;-51
2024/01/02 07:12:46;;;;;;;;;;;;;;;20.86;39.36;99031.84;5135423;28;19922;-50
2024/01/02 07:15:11;;;;;;;;;;;;;;;20.88;39.62;99032.44;5133555;28;19922;-49
2024/01/02 07:17:36;;;;;;;;;;;;;;;20.89;39.60;99039.47;5133313;28;19951;-51
2024/01/02 07:20:02;;;;;;;;;;;;;;;20.91;39.54;99038.19;5134644;28;20277;-50
2024/01/02 07:22:28;;;;;;;;;;;;;;;20.93;39.35;99037.97;5129627;28;19928;-47
2024/01/02 07:24:53;;;;;;;;;;;;;;;20.96;39.35;99041.03;5132709;28;19983;-49
2024/01/02 07:27:18;;;;;;;;;;;;;;;21.00;39.61;99043.31;5130218;28;19919;-48
2024/01/02 07:29:43;;;;;;;;;;;;;;;21.03;39.17;99040.97;5134357;28;19983;-49
2024/01/02 07:32:08;;;;;;;;;;;;;;;21.04;39.19;99039.91;5131268;28;19923;-48
2024/01/02 07:34:34;;;;;;;;;;;;;;;21.08;39.38;99049.22;5131464;27;19912;-48
2024/01/02 07:36:59;;;;;;;;;;;;;;;21.11;39.45;99046.06;5128101;28;19916;-47
2024/01/02 07:39:24;;;;;;;;;;;;;;;21.13;39.47;99059.34;5132312;28;19954;-51
2024/01/02 07:41:49;;;;;;;;;;;;;;;21.15;39.12;99055.38;5133473;28;19975;-48
2024/01/02 07:44:15;;;;;;;;;;;;;;;21.17;39.49;99065.94;5126853;28;19911;-49
2024/01/02 07:46:40;;;;;;;;;;;;;;;21.18;39.37;99072.97;5133481;28;19916;-48
2024/01/02 07:49:05;;;;;;;;;;;;;;;21.21;39.48;99081.47;5132341;28;19912;-49
2024/01/02 07:51:30;;;;;;;;;;;;;;;21.25;39.48;99083.72;5131818;28;19938;-50
2024/01/02 07:53:56;;;;;;;;;;;;;;;21.26;39.17;99086.19;5132423;28;19975;-45
2024/01/02 07:56:22;;;;;;;;;;;;;;;21.29;39.20;99083.03;5132757;28;20008;-46
2024/01/02 07:58:47;;;;;;;;;;;;;;;21.30;39.35;99092.78;5130334;28;20351;-46
2024/01/02 08:01:13;;;;;;;;;;;;;;;21.31;39.50;99097.13;5133112;27;19979;-45
2024/01/02 08:03:38;;;;;;;;;;;;;;;21.32;39.42;99093.41;5131871;27;20240;-47
2024/01/02 08:06:03;;;;;;;;;;;;;;;21.33;39.23;99100.47;5135751;27;19961;-47
2024/01/02 08:08:29;;;;;;;;;;;;;;;21.35;39.47;99097.53;5133285;27;20280;-46
2024/01/02 08:10:54;;;;;;;;;;;;;;;21.35;39.26;99117.28;5133693;27;20015;-49
2024/01/02 08:13:19;;;;;;;;;;;;;;;21.36;39.47;99108.09;5137984;27;19915;-49
2024/01/02 08:15:44;;;;;;;;;;;;;;;21.39;39.10;99114.94;5134598;27;19912;-48
2024/01/02 08:18:09;;;;;;;;;;;;;;;21.38;39.26;99130.34;5135829;27;20381;-47
2024/01/02 08:20:35;;;;;;;;;;;;;;;21.41;39.23;99135.31;5137361;27;20273;-49
2024/01/02 08:23:00;;;;;;;;;;;;;;;21.42;39.44;99131.53;5135906;27;20396;-45
2024/01/02 08:25:25;;;;;;;;;;;;;;;21.45;39.16;99132.94;5132631;27;19941;-45
2024/01/02 08:27:50;;;;;;;;;;;;;;;21.45;39.18;99128.41;5137598;27;19943;-47
2024/01/02 08:30:15;;;;;;;;;;;;;;;21.46;39.12;99132.75;5120255;27;20153;-47
2024/01/02 08:32:41;;;;;;;;;;;;;;;21.48;39.20;99134.38;5134404;27;20015;-48
2024/01/02 08:35:06;;;;;;;;;;;;;;;21.49;39.09;99127.91;5136506;27;19956;-45
2024/01/02 08:37:31;;;;;;;;;;;;;;;21.50;39.16;99135.81;5127982;27;19911;-49
2024/01/02 08:39:57;;;;;;;;;;;;;;;21.52;39.38;99135.56;5135664;27;19935;-46
2024/01/02 08:42:22;;;;;;;;;;;;;;;21.54;39.00;99133.50;5139103;27;19911;-48
2024/01/02 08:44:47;;;;;;;;;;;;;;;21.54;39.02;99131.59;5138925;27;19927;-44
2024/01/02 08:47:13;;;;;;;;;;;;;;;21.54;39.01;99134.31;5144327;27;19911;-48
2024/01/02 08:49:38;;;;;;;;;;;;;;;21.54;39.14;99128.09;5139892;27;19925;-50
2024/01/02 08:52:03;;;;;;;;;;;;;;;21.56;39.23;99140.31;5137362;27;19919;-47
2024/01/02 08:54:28;;;;;;;;;;;;;;;21.57;38.91;99133.00;5141293;27;19965;-51
2024/01/02 08:56:54;;;;;;;;;;;;;;;21.58;38.92;99140.06;5138061;27;20711;-49
2024/01/02 08:59:19;;;;;;;;;;;;;;;21.59;38.92;99136.31;5135668;27;19918;-46
2024/01/02 09:01:53;;;;;;;;;;;;;;;21.59;39.03;99139.03;5141326;27;19933;-47
2024/01/02 09:04:18;;;;;;;;;;;;;;;21.60;39.08;99140.66;5142579;27;19970;-47
2024/01/02 09:06:44;;;;;;;;;;;;;;;21.61;39.14;99143.13;5140463;27;19916;-45
2024/01/02 09:09:09;;;;;;;;;;;;;;;21.61;39.17;99139.59;5138133;27;19998;-47
2024/01/02 09:11:35;;;;;;;;;;;;;;;21.63;38.83;99134.81;5137711;27;19975;-44
2024/01/02 09:14:00;;;;;;;;;;;;;;;21.64;39.07;99128.34;5138001;27;19912;-46
2024/01/02 09:16:32;;;;;;;;;;;;;;;21.66;38.90;99128.91;5138672;27;19958;-45
2024/01/02 09:18:57;;;;;;;;;;;;;;;21.67;39.13;99136.81;5128754;27;19965;-44
2024/01/02 09:21:22;;;;;;;;;;;;;;;21.67;39.19;99134.13;5137918;27;19923;-45
2024/01/02 09:23:47;;;;;;;;;;;;;;;21.68;38.86;99137.66;5135485;27;20366;-44
2024/01/02 09:26:13;;;;;;;;;;;;;;;21.68;39.13;99127.66;5135320;27;19916;-47
2024/01/02 09:28:38;;;;;;;;;;;;;;;21.68;39.21;99129.53;5111617;27;19911;-46
2024/01/02 09:31:03;;;;;;;;;;;;;;;21.68;39.33;99124.13;5125829;27;19980;-45
2024/01/02 09:33:29;;;;;;;;;;;;;;;21.69;39.17;99123.06;5135279;27;19933;-44
2024/01/02 09:35:54;;;;;;;;;;;;;;;21.69;39.43;99126.59;5123606;27;19912;-44
2024/01/02 09:38:19;;;;;;;;;;;;;;;21.70;39.08;99122.81;5133126;27;19981;-44
2024/01/02 09:41:03;;;;;;;;;;;;;;;21.70;39.36;99130.13;5128915;27;20006;-44
2024/01/02 09:43:31;;;;;;;;;;;;;;;21.71;39.38;99129.91;5131480;27;19915;-44
2024/01/02 09:46:04;;;;;;;;;;;;;;;21.71;39.34;99135.31;5133784;27;19911;-45
2024/01/02 09:48:34;;;;;;;;;;;;;;;21.70;39.43;99144.47;5126969;27;19915;-46
2024/01/02 09:51:06;;;;;;;;;;;;;;;21.73;39.65;99136.94;5124517;27;19908;-47
2024/01/02 09:53:50;;;;;;;;;;;;;;;21.73;39.33;99136.94;5124721;27;19911;-45
2024/01/02 09:56:19;;;;;;;;;;;;;;;21.73;39.45;99140.47;5127819;27;20027;-45
2024/01/02 09:58:49;;;;;;;;;;;;;;;21.73;39.47;99147.78;5123647;27;19919;-47
2024/01/02 10:01:49;;;;;;;;;;;;;;;21.73;39.34;99139.66;5121928;27;20229;-45
2024/01/02 10:04:22;;;;;;;;;;;;;;;21.72;39.85;99138.84;5021728;28;19917;-47
2024/01/02 10:06:56;;;;;;;;;;;;;;;21.73;39.75;99136.94;5022005;28;20084;-45
2024/01/02 10:09:30;;;;;;;;;;;;;;;21.71;39.41;99138.03;5022873;28;19913;-47
2024/01/02 10:12:11;;;;;;;;;;;;;;;21.71;39.46;99127.19;5019100;28;19913;-46
2024/01/02 10:14:41;;;;;;;;;;;;;;;21.72;39.71;99136.13;5024914;28;19917;-47
2024/01/02 10:17:06;;;;;;;;;;;;;;;21.72;39.66;99136.13;5025057;28;19951;-48
2024/01/02 10:19:41;;;;;;;;;;;;;;;21.74;39.41;99134.00;5028238;28;20095;-44
2024/01/02 10:22:25;;;;;;;;;;;;;;;21.73;39.65;99137.78;5019226;28;20565;-46
2024/01/02 10:25:05;;;;;;;;;;;;;;;21.73;39.84;99143.19;5011682;28;20391;-47
2024/01/02 10:27:43;;;;;;;;;;;;;;;21.71;39.61;99135.31;5015416;28;19921;-50
2024/01/02 10:30:09;;;;;;;;;;;;;;;21.73;39.63;99139.66;5010710;28;19990;-47
2024/01/02 10:32:54;;;;;;;;;;;;;;;21.72;39.69;99122.59;4995486;28;19913;-46
2024/01/02 10:35:20;;;;;;;;;;;;;;;21.72;39.50;99125.31;5010925;28;20004;-49
2024/01/02 10:38:04;;;;;;;;;;;;;;;21.74;39.41;99115.06;5049405;27;19946;-49
2024/01/02 10:40:29;;;;;;;;;;;;;;;21.73;39.48;99110.72;5137696;27;19916;-48
2024/01/02 10:43:13;;;;;;;;;;;;;;;21.74;39.50;99112.38;5138142;27;20283;-47
2024/01/02 10:45:57;;;;;;;;;;;;;;;21.75;39.58;99105.94;5136835;27;19919;-47
2024/01/02 10:48:40;;;;;;;;;;;;;;;21.76;39.63;99104.03;5135213;27;20373;-50
2024/01/02 10:51:08;;;;;;;;;;;;;;;21.77;39.66;99102.97;5133765;27;20253;-45
2024/01/02 10:53:36;;;;;;;;;;;;;;;21.77;39.51;99097.56;5130695;27;19912;-46
2024/01/02 10:56:05;;;;;;;;;;;;;;;21.77;39.46;99100.28;5132295;27;20339;-46
2024/01/02 10:58:31;;;;;;;;;;;;;;;21.77;39.36;99095.69;5134740;28;19935;-47
2024/01/02 11:01:03;;;;;;;;;;;;;;;21.78;39.57;99107.31;5133747;27;19915;-45
2024/01/02 11:03:28;;;;;;;;;;;;;;;21.79;39.53;99096.28;5130589;28;19916;-48
2024/01/02 11:06:00;;;;;;;;;;;;;;;21.79;39.63;99088.19;5113192;28;19911;-48
2024/01/02 11:08:33;;;;;;;;;;;;;;;21.78;39.27;99091.91;5123431;28;20336;-45
2024/01/02 11:11:03;;;;;;;;;;;;;;;21.80;39.78;99083.59;5137001;28;19920;-47
2024/01/02 11:13:29;;;;;;;;;;;;;;;21.80;39.49;99072.75;5136930;28;19987;-45
2024/01/02 11:16:02;;;;;;;;;;;;;;;21.82;39.35;99066.06;5136811;28;19911;-46
2024/01/02 11:18:29;;;;;;;;;;;;;;;21.85;39.35;99062.88;5133816;28;19924;-48
2024/01/02 11:21:04;;;;;;;;;;;;;;;21.86;39.31;99059.13;5133230;28;19922;-46
2024/01/02 11:23:30;;;;;;;;;;;;;;;21.89;39.30;99064.06;5131764;28;19937;-46
2024/01/02 11:25:57;;;;;;;;;;;;;;;21.90;39.59;99051.38;5129385;28;19919;-48
2024/01/02 11:28:22;;;;;;;;;;;;;;;21.91;39.40;99058.41;5129373;28;20061;-45
2024/01/02 11:30:47;;;;;;;;;;;;;;;21.91;39.39;99042.19;5113547;28;19919;-46
2024/01/02 11:33:15;;;;;;;;;;;;;;;21.94;39.28;99044.44;5131041;27;20006;-46
2024/01/02 11:35:44;;;;;;;;;;;;;;;21.94;39.49;99039.84;5131906;27;19916;-45
2024/01/02 11:38:09;;;;;;;;;;;;;;;;;;5136304;27;19915;-45
2024/01/02 11:40:46;;;;;;;;;;;;;;;21.99;39.49;99022.91;5137690;27;19918;-45
2024/01/02 11:43:20;;;;;;;;;;;;;;;21.95;39.36;99019.84;5139565;27;20374;-49
2024/01/02 11:45:47;;;;;;;;;;;;;;;21.99;39.51;99003.13;5130394;27;19911;-48
2024/01/02 11:48:18;;;;;;;;;;;;;;;22.01;39.54;98999.16;5125227;27;19911;-46
2024/01/02 11:50:43;;;;;;;;;;;;;;;22.01;39.70;99001.84;5128727;27;19913;-44
2024/01/02 11:53:13;;;;;;;;;;;;;;;22.05;39.46;99000.31;5140130;27;20033;-45
2024/01/02 11:55:45;;;;;;;;;;;;;;;22.12;39.56;98987.50;5124639;27;19999;-44
2024/01/02 11:58:13;;;;;;;;;;;;;;;22.14;39.35;98977.28;5121120;28;19920;-46
2024/01/02 12:00:42;;;;;;;;;;;;;;;22.18;39.50;98972.22;5115217;28;19924;-45
2024/01/02 12:03:08;;;;;;;;;;;;;;;22.24;39.22;98971.25;5115747;28;19927;-47
2024/01/02 12:05:39;;;;;;;;;;;;;;;22.27;39.34;98964.56;5117104;28;19938;-47
2024/01/02 12:08:13;;;;;;;;;;;;;;;22.31;39.40;98969.25;5124319;28;20282;-47
2024/01/02 12:10:41;;;;;;;;;;;;;;;22.32;39.33;98968.19;5121663;28;19924;-46
2024/01/02 12:13:33;;;;;;;;;;;;;;;22.38;39.21;98969.13;5117140;28;19926;-47
2024/01/02 12:16:00;;;;;;;;;;;;;;;22.43;38.85;98959.25;5115435;28;19920;-47
2024/01/02 12:18:26;;;;;;;;;;;;;;;22.46;39.19;98942.50;5122562;28;19955;-51
2024/01/02 12:21:01;;;;;;;;;;;;;;;22.50;38.92;98936.59;5116382;28;19927;-50
2024/01/02 12:23:26;;;;;;;;;;;;;;;22.53;39.10;98931.53;5119103;28;19927;-52
2024/01/02 12:25:56;;;;;;;;;;;;;;;22.57;38.92;98935.41;5115778;28;19916;-52
2024/01/02 12:28:23;;;;;;;;;;;;;;;22.60;38.92;98929.50;5113764;28;19922;-52
2024/01/02 12:30:56;;;;;;;;;;;;;;;22.64;39.00;98930.69;5123692;28;19911;-51
2024/01/02 12:33:27;;;;;;;;;;;;;;;22.69;38.91;98921.81;5124577;28;19954;-52
2024/01/02 12:36:11;;;;;;;;;;;;;;;22.71;38.87;98916.97;5122947;28;20154;-52
2024/01/02 12:38:46;;;;;;;;;;;;;;;22.73;38.69;98917.56;5113868;28;20318;-47
2024/01/02 12:41:11;;;;;;;;;;;;;;;22.75;38.79;98909.19;5117938;28;20366;-45
2024/01/02 12:43:36;;;;;;;;;;;;;;;22.75;38.84;98899.19;5121457;28;19916;-45
2024/01/02 12:46:10;;;;;;;;;;;;;;;22.70;38.66;98880.94;5115457;28;19916;-45